Historique des stations

Station météo de Ménétréols-sous-Vatan

Altitude de la station : 192 m







Données météorologiques pour le 06/03/2021
Date
Heure
Températures Humidité Point de rosée Vitesse
du vent
Direction Rafales Windchill Pression Pluviométrie
Cumul
Date
Heure
Températures Humidité Point de rosée Vitesse
du vent
Direction Rafales Windchill Pression Pluviométrie
Cumul
06/03/2021 12:146.7 °C66 %0.6 °C16 km/hSO31 km/h3.3 1026 hPa-
06/03/2021 11:596.1 °C67 %0.6 °C10 km/hSSO31 km/h3.9 1026 hPa-
06/03/2021 11:445.8 °C71 %1.1 °C11 km/hSSO31 km/h3.3 1026 hPa-
06/03/2021 11:295.2 °C73 %0.6 °C21 km/hSO31 km/h1.1 1026 hPa-
06/03/2021 11:144.7 °C73 %0.0 °C18 km/hOSO31 km/h1.1 1026 hPa-
06/03/2021 10:594.5 °C75 %0.6 °C14 km/hSO31 km/h1.1 1026 hPa-
06/03/2021 10:444.1 °C78 %0.6 °C14 km/hSO31 km/h0.6 1026 hPa-
06/03/2021 10:293.4 °C79 %0.0 °C16 km/hSO31 km/h-0.6 1026 hPa-
06/03/2021 10:143.1 °C80 %0.0 °C18 km/hSO31 km/h-0.6 1027 hPa-
06/03/2021 09:592.5 °C84 %0.0 °C16 km/hSO31 km/h-1.1 1026 hPa-
06/03/2021 09:441.8 °C84 %-0.6 °C16 km/hSO31 km/h-2.8 1026 hPa-
06/03/2021 09:301.3 °C86 %-0.6 °C8 km/hSO31 km/h-1.7 1026 hPa-
06/03/2021 09:150.7 °C87 %-1.1 °C13 km/hSSO31 km/h-2.8 1026 hPa-
06/03/2021 09:000.3 °C88 %-1.7 °C11 km/hSSO31 km/h-2.8 1026 hPa-
06/03/2021 08:45-0.2 °C89 %-1.7 °C6 km/hSSO31 km/h-1.7 1026 hPa-
06/03/2021 08:30-0.7 °C90 %-2.2 °C5 km/hSO31 km/h-1.7 1026 hPa-
06/03/2021 08:15-1.3 °C90 %-2.8 °C3 km/hSO31 km/h-2.2 1026 hPa-
06/03/2021 08:00-1.8 °C90 %-3.3 °C5 km/hSSO31 km/h-3.3 1026 hPa-
06/03/2021 07:45-1.7 °C89 %-3.3 °C3 km/hSSO31 km/h-2.8 1026 hPa-
06/03/2021 07:30-1.5 °C90 %-2.8 °C6 km/hSSE31 km/h-3.9 1026 hPa-
06/03/2021 07:15-1.7 °C88 %-3.3 °C-SSO31 km/h-1.7 1026 hPa-
06/03/2021 07:00-1.1 °C88 %-2.8 °C8 km/hSSO31 km/h-3.9 1026 hPa-
06/03/2021 06:45-0.6 °C87 %-2.2 °C10 km/hSSO31 km/h-3.3 1026 hPa-
06/03/2021 06:30-0.8 °C88 %-2.2 °C6 km/hSSO31 km/h-2.2 1026 hPa-
06/03/2021 06:14-1.3 °C88 %-2.8 °C5 km/hSSO31 km/h-2.8 1025 hPa-
06/03/2021 05:59-1.1 °C87 %-2.8 °C5 km/hSSO31 km/h-2.8 1025 hPa-
06/03/2021 05:44-0.8 °C87 %-2.8 °C8 km/hSSO31 km/h-3.3 1025 hPa-
06/03/2021 05:28-0.7 °C87 %-2.8 °C10 km/hSSO31 km/h-3.3 1025 hPa-
06/03/2021 05:14-0.8 °C88 %-2.2 °C6 km/hSSO31 km/h-2.2 1025 hPa-
06/03/2021 04:59-0.6 °C87 %-2.2 °C6 km/hSSO31 km/h-2.2 1025 hPa-
06/03/2021 04:45-0.3 °C86 %-2.2 °C6 km/hSSO31 km/h-2.2 1025 hPa-
06/03/2021 04:30-0.1 °C86 %-2.2 °C10 km/hSSO31 km/h-2.8 1025 hPa-
06/03/2021 04:15-0.1 °C86 %-2.2 °C6 km/hSSO31 km/h-1.7 1025 hPa-
06/03/2021 04:00-0.2 °C86 %-2.2 °C8 km/hSSO31 km/h-2.8 1025 hPa-
06/03/2021 03:45-0.1 °C86 %-2.2 °C10 km/hSSO31 km/h-2.8 1025 hPa-
06/03/2021 03:30-0.1 °C86 %-2.2 °C8 km/hSSO31 km/h-2.8 1025 hPa-
06/03/2021 03:150.1 °C85 %-2.2 °C5 km/hSSO31 km/h-1.1 1025 hPa-
06/03/2021 03:000.2 °C85 %-2.2 °C10 km/hSSO31 km/h-2.8 1025 hPa-
06/03/2021 02:450.2 °C85 %-2.2 °C5 km/hSO31 km/h-1.1 1026 hPa-
06/03/2021 02:29-0.1 °C86 %-2.2 °C8 km/hSSO31 km/h-2.8 1026 hPa-
06/03/2021 02:14-0.4 °C86 %-2.2 °C5 km/hSO31 km/h-1.7 1026 hPa-
06/03/2021 01:590.0 °C85 %-2.2 °C5 km/hSO31 km/h-1.1 1026 hPa-
06/03/2021 01:440.1 °C84 %-2.2 °C5 km/hSO31 km/h-1.1 1026 hPa-
06/03/2021 01:290.6 °C83 %-1.7 °C5 km/hSSO31 km/h-0.6 1026 hPa-
06/03/2021 01:140.7 °C83 %-1.7 °C8 km/hSO31 km/h-2.2 1026 hPa-
06/03/2021 00:590.5 °C83 %-2.2 °C5 km/hSO31 km/h-0.6 1026 hPa-
06/03/2021 00:440.7 °C82 %-2.2 °C5 km/hSO31 km/h-0.6 1026 hPa-
06/03/2021 00:290.8 °C81 %-2.2 °C3 km/hSSO31 km/h-0.6 1026 hPa-
06/03/2021 00:140.8 °C79 %-2.2 °C3 km/hSSO31 km/h0.0 1026 hPa-


Minima :

Température : -1.8 °C
Humidité : 66 %
Point de rosée : -3.3 °C
Vent moyen : 3 km/h
Windchill : -3.9
Pression atm. : 1025 hPa
Maxima :

Température : 6.7 °C
Humidité : 90 %
Point de rosée : 1.1 °C
Vent moyen : 21 km/h
Windchill : 3.9
Pression atm. : 1027 hPa
Rafales max : 31 km/h
Cumul de pluie sur 24H : 0 mm

Ménétréols-sous-Vatan est une commune du département Indre (36).
La station météorologique du réseau de l'association la plus proche de Ménétréols-sous-Vatan est celle de Luçay-le-Libre



Icône Facebook Association Météo Centre Icône Twitter Association Météo Centre Icône Chaîne Youtube Association Météo Centre Icône contact Association Météo Centre Icône Insta Association Météo Centre